Terminal Aerodrome Forecast
Issued by NWS Brownsville, TX

Home | Current Version | Previous Version | Text Only | Print | Product List | Glossary On
Versions: 1 2 3 4 5 6 7 8 9 10 11 12 13 14 15 16 17 18 19 20 21 22 23
000
FTUS44 KBRO 272330
TAFBRO
TAF
KBRO 272330Z 2800/2824 33007KT P6SM BKN060
     FM281500 36007KT P6SM BKN050
     FM281800 02008KT P6SM BKN050
      TEMPO 2818/2822 SHRA BKN030=

USA.gov is the U.S. government's official web portal to all federal, state and local government web resources and services.